Terminal Aerodrome Forecast
Issued by NWS

Home | Current Version | Previous Version | Text Only | Print | Product List | Glossary On
Versions: 1 2 3 4 5 6 7 8 9 10 11 12 13 14 15 16
271
FTUS45 KGGW 220527
TAFSDY
TAF
KSDY 220527Z 2206/2306 20015KT P6SM BKN070
     FM220800 VRB03KT P6SM SCT070
     FM230000 29010KT P6SM FEW150=

USA.gov is the U.S. government's official web portal to all federal, state and local government web resources and services.